Time;durP1;ratioP1;P1;durP2;ratioP2;P2;SDS_P1;SDS_P2;PMS_P1;PMS_P2;Temp;Humidity;BMP_temperature;BMP_pressure;BME280_temperature;BME280_humidity;BME280_pressure;Samples;Min_cycle;Max_cycle;Signal;HPM_P1;HPM_P2
2022/12/24 00:00:42;;;;;;;;;;;;;;;;;;4811438;29;20292;-91
2022/12/24 00:03:08;;;;;;;;;;;;;;;;;;4826419;29;19928;-90
2022/12/24 00:05:34;;;;;;;;;;;;;;;;;;4811085;29;19962;-91
2022/12/24 00:08:00;;;;;;;;;;;;;;;;;;4810437;29;19929;-92
2022/12/24 00:10:26;;;;;;;;;;;;;;;;;;4825148;29;20061;-91
2022/12/24 00:12:52;;;;;;;;;;;;;;;;;;4825746;29;19977;-91
2022/12/24 00:15:18;;;;;;;;;;;;;;;;;;4825851;29;20028;-90
2022/12/24 00:17:44;;;;;;;;;;;;;;;;;;4817839;29;20441;-91
2022/12/24 00:20:10;;;;;;;;;;;;;;;;;;4840778;29;20369;-91
2022/12/24 00:22:36;;;;;;;;;;;;;;;;;;4825789;29;19924;-90
2022/12/24 00:25:05;;;;;;;;;;;;;;;;;;4840634;29;20269;-91
2022/12/24 00:27:31;;;;;;;;;;;;;;;;;;4832063;29;19924;-90
2022/12/24 00:29:56;;;;;;;;;;;;;;;;;;4806854;29;19921;-90
2022/12/24 00:32:22;;;;;;;;;;;;;;;;;;4806864;29;20019;-91
2022/12/24 00:34:48;;;;;;;;;;;;;;;;;;4806980;29;19964;-90
2022/12/24 00:37:14;;;;;;;;;;;;;;;;;;4809174;29;19925;-91
2022/12/24 00:39:40;;;;;;;;;;;;;;;;;;4839149;29;19977;-90
2022/12/24 00:42:06;;;;;;;;;;;;;;;;;;4825242;29;19931;-89
2022/12/24 00:44:32;;;;;;;;;;;;;;;;;;4825314;29;19931;-91
2022/12/24 00:47:01;;;;;;;;;;;;;;;;;;4824679;29;20027;-90
2022/12/24 00:49:27;;;;;;;;;;;;;;;;;;4812786;29;20007;-90
2022/12/24 00:51:53;;;;;;;;;;;;;;;;;;4828121;29;19980;-91
2022/12/24 00:54:19;;;;;;;;;;;;;;;;;;4831030;29;20011;-90
2022/12/24 00:56:45;;;;;;;;;;;;;;;;;;4813049;29;20325;-91
2022/12/24 00:59:11;;;;;;;;;;;;;;;;;;4828268;29;19985;-91
2022/12/24 01:01:36;;;;;;;;;;;;;;;;;;4828072;29;20392;-90
2022/12/24 01:06:47;;;;;;;;;;;;;;;;;;4827992;29;19924;-91
2022/12/24 01:09:13;;;;;;;;;;;;;;;;;;4812372;29;19935;-90
2022/12/24 01:11:39;;;;;;;;;;;;;;;;;;4812645;29;20375;-90
2022/12/24 01:14:05;;;;;;;;;;;;;;;;;;4812866;29;19925;-92
2022/12/24 01:16:31;;;;;;;;;;;;;;;;;;4812567;29;19929;-90
2022/12/24 01:18:57;;;;;;;;;;;;;;;;;;4827726;29;20003;-90
2022/12/24 01:21:23;;;;;;;;;;;;;;;;;;4828803;29;20445;-90
2022/12/24 01:23:49;;;;;;;;;;;;;;;;;;4830873;29;19997;-89
2022/12/24 01:26:15;;;;;;;;;;;;;;;;;;4832316;29;19977;-89
2022/12/24 01:28:40;;;;;;;;;;;;;;;;;;4825342;29;19933;-89
2022/12/24 01:31:06;;;;;;;;;;;;;;;;;;4825364;29;19925;-89
2022/12/24 01:33:32;;;;;;;;;;;;;;;;;;4825180;29;19925;-89
2022/12/24 01:35:58;;;;;;;;;;;;;;;;;;4840931;29;20013;-89
2022/12/24 01:38:24;;;;;;;;;;;;;;;;;;4816098;29;20369;-90
2022/12/24 01:43:35;;;;;;;;;;;;;;;;;;4813154;29;19924;-90
2022/12/24 01:46:01;;;;;;;;;;;;;;;;;;4812990;29;20289;-90
2022/12/24 01:48:27;;;;;;;;;;;;;;;;;;4834558;29;19939;-90
2022/12/24 01:50:53;;;;;;;;;;;;;;;;;;4812173;29;19932;-91
2022/12/24 01:53:18;;;;;;;;;;;;;;;;;;4815719;29;19949;-92
2022/12/24 01:55:44;;;;;;;;;;;;;;;;;;4828007;29;19924;-90
2022/12/24 01:58:10;;;;;;;;;;;;;;;;;;4812594;29;20011;-90
2022/12/24 02:00:36;;;;;;;;;;;;;;;;;;4813074;29;20405;-90
2022/12/24 02:03:02;;;;;;;;;;;;;;;;;;4811483;29;19985;-90
2022/12/24 02:05:28;;;;;;;;;;;;;;;;;;4824863;29;19948;-91
2022/12/24 02:07:57;;;;;;;;;;;;;;;;;;4809172;29;19928;-89
2022/12/24 02:10:23;;;;;;;;;;;;;;;;;;4823831;29;19924;-90
2022/12/24 02:12:51;;;;;;;;;;;;;;;;;;4823753;29;20007;-90
2022/12/24 02:15:17;;;;;;;;;;;;;;;;;;4839090;29;19925;-90
2022/12/24 02:17:43;;;;;;;;;;;;;;;;;;4823778;29;19947;-90
2022/12/24 02:20:08;;;;;;;;;;;;;;;;;;4839483;29;19924;-90
2022/12/24 02:22:34;;;;;;;;;;;;;;;;;;4811642;29;20370;-90
2022/12/24 02:25:02;;;;;;;;;;;;;;;;;;4805476;29;20433;-89
2022/12/24 02:27:27;;;;;;;;;;;;;;;;;;4805432;29;20377;-89
2022/12/24 02:29:53;;;;;;;;;;;;;;;;;;4805219;29;19925;-90
2022/12/24 02:32:19;;;;;;;;;;;;;;;;;;4808797;29;19925;-90
2022/12/24 02:34:45;;;;;;;;;;;;;;;;;;4835808;29;19929;-90
2022/12/24 02:37:11;;;;;;;;;;;;;;;;;;4819154;29;20386;-89
2022/12/24 02:39:37;;;;;;;;;;;;;;;;;;4818599;29;19925;-88
2022/12/24 02:42:06;;;;;;;;;;;;;;;;;;4834468;29;19921;-89
2022/12/24 02:44:32;;;;;;;;;;;;;;;;;;4820219;29;19984;-89
2022/12/24 02:46:58;;;;;;;;;;;;;;;;;;4820500;29;20024;-89
2022/12/24 02:49:24;;;;;;;;;;;;;;;;;;4818415;29;20020;-88
2022/12/24 02:51:50;;;;;;;;;;;;;;;;;;4834786;29;19941;-89
2022/12/24 02:54:16;;;;;;;;;;;;;;;;;;4823090;29;20016;-91
2022/12/24 02:56:41;;;;;;;;;;;;;;;;;;4823496;29;20011;-91
2022/12/24 02:59:07;;;;;;;;;;;;;;;;;;4808044;29;19984;-92
2022/12/24 03:01:33;;;;;;;;;;;;;;;;;;4807040;29;20036;-92
2022/12/24 03:03:59;;;;;;;;;;;;;;;;;;4811998;29;20262;-91
2022/12/24 03:06:26;;;;;;;;;;;;;;;;;;4807882;29;20389;-90
2022/12/24 03:08:55;;;;;;;;;;;;;;;;;;4808225;29;20339;-90
2022/12/24 03:11:24;;;;;;;;;;;;;;;;;;4822485;29;19929;-91
2022/12/24 03:13:50;;;;;;;;;;;;;;;;;;4807295;29;19925;-90
2022/12/24 03:16:16;;;;;;;;;;;;;;;;;;4823324;29;20361;-89
2022/12/24 03:18:42;;;;;;;;;;;;;;;;;;4823157;29;20393;-89
2022/12/24 03:21:08;;;;;;;;;;;;;;;;;;4822217;29;19928;-89
2022/12/24 03:23:34;;;;;;;;;;;;;;;;;;4822380;29;19921;-89
2022/12/24 03:25:59;;;;;;;;;;;;;;;;;;4822792;29;19925;-89
2022/12/24 03:28:25;;;;;;;;;;;;;;;;;;4807358;29;20028;-89
2022/12/24 03:30:53;;;;;;;;;;;;;;;;;;4822406;29;19960;-89
2022/12/24 03:33:18;;;;;;;;;;;;;;;;;;4822598;29;19924;-89
2022/12/24 03:35:44;;;;;;;;;;;;;;;;;;4823029;29;19947;-88
2022/12/24 03:38:10;;;;;;;;;;;;;;;;;;4838142;29;19931;-90
2022/12/24 03:40:36;;;;;;;;;;;;;;;;;;4822363;29;19936;-90
2022/12/24 03:43:02;;;;;;;;;;;;;;;;;;4806802;29;19929;-91
2022/12/24 03:45:28;;;;;;;;;;;;;;;;;;4822823;29;20342;-90
2022/12/24 03:47:54;;;;;;;;;;;;;;;;;;4822715;29;20031;-90
2022/12/24 03:50:20;;;;;;;;;;;;;;;;;;4837592;29;19925;-90
2022/12/24 03:52:46;;;;;;;;;;;;;;;;;;4820969;29;19947;-89
2022/12/24 03:55:12;;;;;;;;;;;;;;;;;;4822430;29;19996;-90
2022/12/24 03:57:38;;;;;;;;;;;;;;;;;;4822331;29;19975;-89
2022/12/24 04:00:04;;;;;;;;;;;;;;;;;;4822474;29;19929;-89
2022/12/24 04:02:30;;;;;;;;;;;;;;;;;;4812975;29;20535;-88
2022/12/24 04:04:57;;;;;;;;;;;;;;;;;;4803922;29;19925;-89
2022/12/24 04:07:23;;;;;;;;;;;;;;;;;;4804114;29;19974;-90
2022/12/24 04:09:49;;;;;;;;;;;;;;;;;;4804051;29;20328;-89
2022/12/24 04:12:15;;;;;;;;;;;;;;;;;;4810747;29;19932;-90
2022/12/24 04:14:41;;;;;;;;;;;;;;;;;;4824373;29;19981;-89
2022/12/24 04:17:07;;;;;;;;;;;;;;;;;;4825647;29;19941;-89
2022/12/24 04:19:33;;;;;;;;;;;;;;;;;;4810914;29;19990;-88
2022/12/24 04:21:59;;;;;;;;;;;;;;;;;;4825299;29;19954;-90
2022/12/24 04:24:25;;;;;;;;;;;;;;;;;;4825459;29;19925;-89
2022/12/24 04:26:54;;;;;;;;;;;;;;;;;;4840826;29;19953;-88
2022/12/24 04:29:20;;;;;;;;;;;;;;;;;;4825249;29;19958;-88
2022/12/24 04:31:49;;;;;;;;;;;;;;;;;;4824875;29;19925;-87
2022/12/24 04:34:14;;;;;;;;;;;;;;;;;;4824911;29;19990;-88
2022/12/24 04:36:40;;;;;;;;;;;;;;;;;;4824863;29;20341;-89
2022/12/24 04:39:06;;;;;;;;;;;;;;;;;;4825108;29;19921;-88
2022/12/24 04:41:32;;;;;;;;;;;;;;;;;;4824766;29;19925;-89
2022/12/24 04:43:58;;;;;;;;;;;;;;;;;;4840610;29;19935;-89
2022/12/24 04:46:24;;;;;;;;;;;;;;;;;;4840339;29;19924;-89
2022/12/24 04:48:50;;;;;;;;;;;;;;;;;;4840284;29;19935;-89
2022/12/24 04:51:16;;;;;;;;;;;;;;;;;;4824988;29;20433;-89
2022/12/24 04:53:42;;;;;;;;;;;;;;;;;;4824543;29;19929;-89
2022/12/24 04:56:08;;;;;;;;;;;;;;;;;;4825058;29;19927;-89
2022/12/24 04:58:33;;;;;;;;;;;;;;;;;;4824749;29;19925;-89
2022/12/24 05:00:59;;;;;;;;;;;;;;;;;;4825443;29;19991;-89
2022/12/24 05:03:25;;;;;;;;;;;;;;;;;;4823127;29;20393;-89
2022/12/24 05:05:51;;;;;;;;;;;;;;;;;;4842882;29;19976;-89
2022/12/24 05:08:17;;;;;;;;;;;;;;;;;;4827826;29;19984;-89
2022/12/24 05:10:43;;;;;;;;;;;;;;;;;;4826061;29;20007;-89
2022/12/24 05:13:09;;;;;;;;;;;;;;;;;;4815681;29;19925;-88
2022/12/24 05:15:35;;;;;;;;;;;;;;;;;;4824557;29;19924;-89
2022/12/24 05:18:01;;;;;;;;;;;;;;;;;;4824570;29;19932;-89
2022/12/24 05:20:27;;;;;;;;;;;;;;;;;;4812565;29;19925;-89
2022/12/24 05:28:22;;;;;;;;;;;;;;;;;;4809261;29;19932;-88
2022/12/24 05:30:48;;;;;;;;;;;;;;;;;;4819506;29;20409;-89
2022/12/24 05:33:17;;;;;;;;;;;;;;;;;;4824008;29;19924;-89
2022/12/24 05:35:43;;;;;;;;;;;;;;;;;;4841881;29;19977;-89
2022/12/24 05:38:08;;;;;;;;;;;;;;;;;;4826882;29;20275;-88
2022/12/24 05:40:34;;;;;;;;;;;;;;;;;;4827130;29;19932;-89
2022/12/24 05:43:00;;;;;;;;;;;;;;;;;;4810929;29;20008;-89
2022/12/24 05:45:26;;;;;;;;;;;;;;;;;;4808956;29;19977;-89
2022/12/24 05:47:53;;;;;;;;;;;;;;;;;;4808780;29;19953;-88
2022/12/24 05:50:19;;;;;;;;;;;;;;;;;;4810131;29;20020;-88
2022/12/24 05:52:45;;;;;;;;;;;;;;;;;;4821557;29;19960;-90
2022/12/24 05:55:11;;;;;;;;;;;;;;;;;;4824223;29;19984;-89
2022/12/24 05:57:37;;;;;;;;;;;;;;;;;;4823871;29;20335;-89
2022/12/24 06:00:03;;;;;;;;;;;;;;;;;;4822403;29;19925;-89
2022/12/24 06:02:29;;;;;;;;;;;;;;;;;;4832538;29;19929;-89
2022/12/24 06:04:55;;;;;;;;;;;;;;;;;;4816331;29;20086;-90
2022/12/24 06:07:21;;;;;;;;;;;;;;;;;;4839674;29;19990;-89
2022/12/24 06:09:47;;;;;;;;;;;;;;;;;;4823924;29;19957;-89
2022/12/24 06:12:13;;;;;;;;;;;;;;;;;;4822051;29;19960;-89
2022/12/24 06:14:39;;;;;;;;;;;;;;;;;;4823260;29;19929;-88
2022/12/24 06:17:04;;;;;;;;;;;;;;;;;;4835584;29;20653;-89
2022/12/24 06:19:30;;;;;;;;;;;;;;;;;;4815198;29;19937;-90
2022/12/24 06:21:56;;;;;;;;;;;;;;;;;;4820029;29;19928;-89
2022/12/24 06:24:22;;;;;;;;;;;;;;;;;;4811828;29;19928;-89
2022/12/24 06:26:48;;;;;;;;;;;;;;;;;;4828146;29;20047;-90
2022/12/24 06:29:14;;;;;;;;;;;;;;;;;;4792991;29;19937;-88
2022/12/24 06:31:40;;;;;;;;;;;;;;;;;;4797598;29;20433;-89
2022/12/24 06:34:06;;;;;;;;;;;;;;;;;;4830440;29;20396;-89
2022/12/24 06:36:32;;;;;;;;;;;;;;;;;;4815942;29;19947;-89
2022/12/24 06:38:58;;;;;;;;;;;;;;;;;;4799536;29;20003;-90
2022/12/24 06:41:24;;;;;;;;;;;;;;;;;;4833524;29;19936;-90
2022/12/24 06:43:49;;;;;;;;;;;;;;;;;;4829056;29;20330;-90
2022/12/24 06:46:15;;;;;;;;;;;;;;;;;;4801305;29;20292;-91
2022/12/24 06:48:41;;;;;;;;;;;;;;;;;;4800257;29;19937;-90
2022/12/24 06:51:07;;;;;;;;;;;;;;;;;;4829858;29;19935;-90
2022/12/24 06:53:33;;;;;;;;;;;;;;;;;;4815979;29;19924;-91
2022/12/24 06:55:59;;;;;;;;;;;;;;;;;;4799447;29;19967;-92
2022/12/24 06:58:25;;;;;;;;;;;;;;;;;;4845591;29;19931;-91
2022/12/24 07:00:51;;;;;;;;;;;;;;;;;;4803039;29;19929;-91
2022/12/24 07:03:20;;;;;;;;;;;;;;;;;;4798816;29;19943;-91
2022/12/24 07:05:46;;;;;;;;;;;;;;;;;;4800583;29;20262;-90
2022/12/24 07:08:11;;;;;;;;;;;;;;;;;;4829590;29;20330;-91
2022/12/24 07:10:37;;;;;;;;;;;;;;;;;;4830972;29;19924;-92
2022/12/24 07:13:04;;;;;;;;;;;;;;;;;;4802254;29;20016;-92
2022/12/24 07:15:30;;;;;;;;;;;;;;;;;;4830398;29;19928;-93
2022/12/24 07:17:56;;;;;;;;;;;;;;;;;;4801094;29;20437;-91
2022/12/24 07:20:22;;;;;;;;;;;;;;;;;;4831904;29;19932;-90
2022/12/24 07:22:47;;;;;;;;;;;;;;;;;;4828909;29;19951;-91
2022/12/24 07:25:14;;;;;;;;;;;;;;;;;;4815799;29;19935;-91
2022/12/24 07:27:40;;;;;;;;;;;;;;;;;;4830233;29;19928;-91
2022/12/24 07:30:06;;;;;;;;;;;;;;;;;;4800913;29;19925;-92
2022/12/24 07:32:32;;;;;;;;;;;;;;;;;;4800043;29;20075;-88
2022/12/24 07:34:57;;;;;;;;;;;;;;;;;;4818429;29;19928;-94
2022/12/24 07:42:39;;;;;;;;;;;;;;;;;;4715030;23;20505;-92
2022/12/24 07:45:05;;;;;;;;;;;;;;;;;;4837571;29;19932;-91
2022/12/24 08:00:39;;;;;;;;;;;;;;;;;;3035911;23;19934;-93
2022/12/24 08:03:05;;;;;;;;;;;;;;;;;;4841030;29;19928;-94
2022/12/24 08:05:31;;;;;;;;;;;;;;;;;;4833079;29;19928;-94
2022/12/24 08:08:08;;;;;;;;;;;;;;;;;;4860267;29;20008;-96
2022/12/24 08:10:44;;;;;;;;;;;;;;;;;;4835802;29;19928;-96
2022/12/24 08:13:14;;;;;;;;;;;;;;;;;;4834759;29;19924;-94
2022/12/24 08:15:57;;;;;;;;;;;;;;;;;;4832098;29;19935;-95
2022/12/24 08:18:27;;;;;;;;;;;;;;;;;;4853807;29;19928;-95
2022/12/24 08:20:53;;;;;;;;;;;;;;;;;;4837896;29;20356;-94
2022/12/24 08:26:32;;;;;;;;;;;;;;;;;;4858607;29;20367;-94
2022/12/24 08:28:58;;;;;;;;;;;;;;;;;;4835364;29;19932;-95
2022/12/24 08:31:29;;;;;;;;;;;;;;;;;;4821444;29;19935;-96
2022/12/24 08:33:55;;;;;;;;;;;;;;;;;;4841782;29;19928;-96
2022/12/24 08:36:21;;;;;;;;;;;;;;;;;;4824727;29;19935;-95
2022/12/24 08:38:57;;;;;;;;;;;;;;;;;;4853832;29;19963;-95
2022/12/24 08:41:23;;;;;;;;;;;;;;;;;;4819809;29;19925;-95
2022/12/24 08:43:57;;;;;;;;;;;;;;;;;;4839554;29;19952;-96
2022/12/24 08:46:23;;;;;;;;;;;;;;;;;;4833895;29;19953;-94
2022/12/24 08:49:01;;;;;;;;;;;;;;;;;;4862349;23;20024;-96
2022/12/24 08:54:29;;;;;;;;;;;;;;;;;;4835152;29;19961;-96
2022/12/24 08:57:01;;;;;;;;;;;;;;;;;;4851144;29;20287;-96
2022/12/24 09:25:43;;;;;;;;;;;;;;;;;;5116310;23;19928;-91
2022/12/24 09:28:09;;;;;;;;;;;;;;;;;;4863750;29;19988;-92
2022/12/24 09:33:42;;;;;;;;;;;;;;;;;;4854493;29;19939;-94
2022/12/24 09:42:25;;;;;;;;;;;;;;;;;;5606611;23;20344;-95
2022/12/24 09:47:28;;;;;;;;;;;;;;;;;;5564540;23;19933;-90
2022/12/24 09:49:54;;;;;;;;;;;;;;;;;;5055153;24;19932;-94
2022/12/24 09:52:27;;;;;;;;;;;;;;;;;;4861174;29;20006;-94
2022/12/24 09:54:52;;;;;;;;;;;;;;;;;;4860172;29;19979;-90
2022/12/24 09:57:18;;;;;;;;;;;;;;;;;;4860252;29;19930;-91
2022/12/24 09:59:44;;;;;;;;;;;;;;;;;;4857500;29;19924;-91
2022/12/24 10:02:10;;;;;;;;;;;;;;;;;;4857954;29;19924;-91
2022/12/24 10:04:36;;;;;;;;;;;;;;;;;;4856615;29;19928;-92
2022/12/24 10:07:02;;;;;;;;;;;;;;;;;;4857007;29;20387;-92
2022/12/24 10:09:34;;;;;;;;;;;;;;;;;;4842228;29;19928;-94
2022/12/24 10:12:00;;;;;;;;;;;;;;;;;;4857824;29;19925;-93
2022/12/24 10:14:27;;;;;;;;;;;;;;;;;;4857739;29;20295;-92
2022/12/24 10:16:53;;;;;;;;;;;;;;;;;;4857515;29;20418;-92
2022/12/24 10:19:26;;;;;;;;;;;;;;;;;;4856565;29;19947;-93
2022/12/24 10:24:54;;;;;;;;;;;;;;;;;;4829326;29;20377;-95
2022/12/24 10:27:23;;;;;;;;;;;;;;;;;;4871878;29;19928;-92
2022/12/24 10:29:49;;;;;;;;;;;;;;;;;;4856561;29;19932;-93
2022/12/24 10:32:16;;;;;;;;;;;;;;;;;;4876186;29;19978;-93
2022/12/24 10:34:42;;;;;;;;;;;;;;;;;;4857130;29;19987;-93
2022/12/24 10:37:08;;;;;;;;;;;;;;;;;;4857463;29;20314;-91
2022/12/24 10:39:34;;;;;;;;;;;;;;;;;;4856859;29;19929;-92
2022/12/24 10:42:00;;;;;;;;;;;;;;;;;;4857748;29;19924;-91
2022/12/24 10:44:26;;;;;;;;;;;;;;;;;;4857750;29;20304;-94
2022/12/24 10:46:54;;;;;;;;;;;;;;;;;;4871388;29;19941;-95
2022/12/24 10:49:21;;;;;;;;;;;;;;;;;;4862453;29;19932;-96
2022/12/24 10:52:02;;;;;;;;;;;;;;;;;;4864498;29;19928;-95
2022/12/24 10:54:45;;;;;;;;;;;;;;;;;;4874456;29;20407;-94
2022/12/24 10:57:10;;;;;;;;;;;;;;;;;;4862616;29;19924;-95
2022/12/24 10:59:39;;;;;;;;;;;;;;;;;;4862692;29;20265;-93
2022/12/24 11:02:12;;;;;;;;;;;;;;;;;;4868205;29;19924;-96
2022/12/24 11:04:38;;;;;;;;;;;;;;;;;;4875666;29;19936;-93
2022/12/24 11:07:10;;;;;;;;;;;;;;;;;;4845861;29;19924;-95
2022/12/24 11:09:42;;;;;;;;;;;;;;;;;;4845125;29;19937;-93
2022/12/24 11:12:08;;;;;;;;;;;;;;;;;;4848587;29;19933;-93
2022/12/24 11:37:56;;;;;;;;;;;;;;;;;;5566359;23;19928;-92
2022/12/24 11:40:22;;;;;;;;;;;;;;;;;;4832160;29;19925;-94
2022/12/24 11:42:57;;;;;;;;;;;;;;;;;;4833466;29;20277;-94
2022/12/24 11:45:25;;;;;;;;;;;;;;;;;;4836446;29;20255;-93
2022/12/24 11:47:52;;;;;;;;;;;;;;;;;;4833357;29;20290;-92
2022/12/24 11:55:30;;;;;;;;;;;;;;;;;;4440169;23;14015175;-91
2022/12/24 11:57:58;;;;;;;;;;;;;;;;;;4839292;29;19939;-94
2022/12/24 12:16:03;;;;;;;;;;;;;;;;;;5782930;23;19922;-94
2022/12/24 12:21:05;;;;;;;;;;;;;;;;;;5219026;23;19928;-95
2022/12/24 12:29:03;;;;;;;;;;;;;;;;;;5370375;23;19985;-93
2022/12/24 12:31:31;;;;;;;;;;;;;;;;;;4825023;29;20007;-91
2022/12/24 12:33:57;;;;;;;;;;;;;;;;;;4810894;29;19932;-94
2022/12/24 12:36:33;;;;;;;;;;;;;;;;;;;;;
2022/12/24 12:39:16;;;;;;;;;;;;;;;;;;4825888;29;19925;-93
2022/12/24 12:41:43;;;;;;;;;;;;;;;;;;4810971;29;19925;-93
2022/12/24 12:44:09;;;;;;;;;;;;;;;;;;4811037;29;19935;-92
2022/12/24 12:46:38;;;;;;;;;;;;;;;;;;4810986;29;19924;-93
2022/12/24 12:49:04;;;;;;;;;;;;;;;;;;4812487;29;19951;-92
2022/12/24 12:51:33;;;;;;;;;;;;;;;;;;4811017;29;19933;-93
2022/12/24 12:54:02;;;;;;;;;;;;;;;;;;4810779;29;19932;-94
2022/12/24 12:56:28;;;;;;;;;;;;;;;;;;4811508;29;19932;-95
2022/12/24 12:59:00;;;;;;;;;;;;;;;;;;4811368;29;19925;-93
2022/12/24 13:04:40;;;;;;;;;;;;;;;;;;4844609;29;19955;-94
2022/12/24 13:07:17;;;;;;;;;;;;;;;;;;4823858;29;19924;-94
2022/12/24 13:17:42;;;;;;;;;;;;;;;;;;5283029;23;19932;-94
2022/12/24 14:46:23;;;;;;;;;;;;;;;;;;4861879;29;20006;-94
2022/12/24 14:48:50;;;;;;;;;;;;;;;;;;4846206;29;19934;-95
2022/12/24 14:51:19;;;;;;;;;;;;;;;;;;4855026;29;20015;-95
2022/12/24 14:53:48;;;;;;;;;;;;;;;;;;4836126;29;19980;-94
2022/12/24 14:56:21;;;;;;;;;;;;;;;;;;4838919;29;19963;-95
2022/12/24 14:58:47;;;;;;;;;;;;;;;;;;4832509;29;19924;-96
2022/12/24 15:01:16;;;;;;;;;;;;;;;;;;4844953;29;19931;-94
2022/12/24 15:03:59;;;;;;;;;;;;;;;;;;4835273;29;19947;-96
2022/12/24 15:06:25;;;;;;;;;;;;;;;;;;4903420;24;19945;-95
2022/12/24 15:11:27;;;;;;;;;;;;;;;;;;4990726;23;19988;-95
2022/12/24 15:13:58;;;;;;;;;;;;;;;;;;4853471;29;19924;-95
2022/12/24 15:56:20;;;;;;;;;;;;;;;;;;5400309;23;19928;-93
2022/12/24 15:58:46;;;;;;;;;;;;;;;;;;4869120;29;20351;-92
2022/12/24 16:01:15;;;;;;;;;;;;;;;;;;4817524;29;19984;-94
2022/12/24 16:03:45;;;;;;;;;;;;;;;;;;4831365;29;19990;-93
2022/12/24 16:06:12;;;;;;;;;;;;;;;;;;4841529;29;20049;-93
2022/12/24 16:08:38;;;;;;;;;;;;;;;;;;4828101;29;20019;-92
2022/12/24 16:11:08;;;;;;;;;;;;;;;;;;4836196;29;19931;-93
2022/12/24 16:13:37;;;;;;;;;;;;;;;;;;4838533;29;19928;-94
2022/12/24 16:16:03;;;;;;;;;;;;;;;;;;4840098;29;19924;-93
2022/12/24 16:18:29;;;;;;;;;;;;;;;;;;4838928;29;20418;-94
2022/12/24 16:21:01;;;;;;;;;;;;;;;;;;4841921;29;19943;-95
2022/12/24 16:23:36;;;;;;;;;;;;;;;;;;4847901;29;20291;-93
2022/12/24 16:26:02;;;;;;;;;;;;;;;;;;4842326;29;19935;-93
2022/12/24 16:28:31;;;;;;;;;;;;;;;;;;4843660;29;19929;-93
2022/12/24 16:30:57;;;;;;;;;;;;;;;;;;4837885;29;20460;-94
2022/12/24 16:33:32;;;;;;;;;;;;;;;;;;4825858;29;19928;-93
2022/12/24 16:35:58;;;;;;;;;;;;;;;;;;4827415;29;19924;-93
2022/12/24 16:39:21;;;;;;;;;;;;;;;;;;4819820;29;19988;-92
2022/12/24 16:52:28;;;;;;;;;;;;;;;;;;5846655;23;20024;-92
2022/12/24 16:57:58;;;;;;;;;;;;;;;;;;4864930;29;20482;-93
2022/12/24 17:29:25;;;;;;;;;;;;;;;;;;4855634;29;19929;-95
2022/12/24 17:32:01;;;;;;;;;;;;;;;;;;;;;
2022/12/24 17:37:18;;;;;;;;;;;;;;;;;;4855380;29;20029;-94
2022/12/24 17:39:45;;;;;;;;;;;;;;;;;;4842087;29;19932;-93
2022/12/24 18:02:58;;;;;;;;;;;;;;;;;;5584482;23;19984;-96
2022/12/24 18:18:26;;;;;;;;;;;;;;;;;;5288310;23;19932;-94
2022/12/24 18:31:16;;;;;;;;;;;;;;;;;;4900684;23;20400;-96
2022/12/24 18:34:06;;;;;;;;;;;;;;;;;;4854421;29;19932;-96
2022/12/24 18:36:51;;;;;;;;;;;;;;;;;;5001885;23;19935;-96
2022/12/24 18:39:17;;;;;;;;;;;;;;;;;;4844590;29;19985;-96
2022/12/24 18:41:48;;;;;;;;;;;;;;;;;;4831274;29;19928;-95
2022/12/24 18:44:14;;;;;;;;;;;;;;;;;;4831371;29;20116;-94
2022/12/24 18:46:40;;;;;;;;;;;;;;;;;;4832712;29;20081;-92
2022/12/24 18:54:18;;;;;;;;;;;;;;;;;;4943883;23;19999;-95
2022/12/24 18:56:50;;;;;;;;;;;;;;;;;;4862865;29;19924;-95
2022/12/24 19:02:23;;;;;;;;;;;;;;;;;;4826034;29;19924;-96
2022/12/24 19:12:57;;;;;;;;;;;;;;;;;;5885862;23;19926;-93
2022/12/24 19:15:27;;;;;;;;;;;;;;;;;;4843885;29;19935;-90
2022/12/24 19:17:53;;;;;;;;;;;;;;;;;;4843860;29;19930;-90
2022/12/24 19:20:19;;;;;;;;;;;;;;;;;;4844383;29;19931;-92
2022/12/24 19:22:44;;;;;;;;;;;;;;;;;;4829532;29;19930;-93
2022/12/24 19:25:10;;;;;;;;;;;;;;;;;;4829282;29;20348;-91
2022/12/24 19:27:36;;;;;;;;;;;;;;;;;;4829161;29;20216;-91
2022/12/24 19:30:02;;;;;;;;;;;;;;;;;;4828501;29;19968;-91
2022/12/24 19:32:30;;;;;;;;;;;;;;;;;;4843801;29;19961;-91
2022/12/24 19:34:56;;;;;;;;;;;;;;;;;;4843927;29;19982;-92
2022/12/24 19:37:22;;;;;;;;;;;;;;;;;;4829510;29;19924;-93
2022/12/24 19:39:48;;;;;;;;;;;;;;;;;;4830806;29;19924;-93
2022/12/24 19:42:13;;;;;;;;;;;;;;;;;;4829374;29;19947;-92
2022/12/24 19:44:39;;;;;;;;;;;;;;;;;;4843880;29;19985;-92
2022/12/24 19:47:05;;;;;;;;;;;;;;;;;;4843764;29;20000;-92
2022/12/24 19:49:31;;;;;;;;;;;;;;;;;;4843616;29;20023;-94
2022/12/24 20:35:17;;;;;;;;;;;;;;;;;;5864009;23;19923;-95
2022/12/24 20:37:48;;;;;;;;;;;;;;;;;;4825832;29;20301;-95
2022/12/24 20:40:17;;;;;;;;;;;;;;;;;;4874796;24;19980;-94
2022/12/24 20:42:43;;;;;;;;;;;;;;;;;;4859280;29;19924;-95
2022/12/24 20:45:24;;;;;;;;;;;;;;;;;;4859395;29;19931;-95
2022/12/24 20:48:05;;;;;;;;;;;;;;;;;;4861382;29;19931;-96
2022/12/24 20:50:31;;;;;;;;;;;;;;;;;;4857228;29;19979;-94
2022/12/24 20:52:57;;;;;;;;;;;;;;;;;;4855909;29;20300;-94
2022/12/24 20:55:28;;;;;;;;;;;;;;;;;;4856018;29;19930;-95
2022/12/24 21:00:33;;;;;;;;;;;;;;;;;;4939770;23;20015;-96
2022/12/24 21:03:05;;;;;;;;;;;;;;;;;;4863618;29;20015;-96
2022/12/24 21:05:42;;;;;;;;;;;;;;;;;;4864125;29;19931;-96
2022/12/24 21:21:42;;;;;;;;;;;;;;;;;;5501810;23;19984;-92
2022/12/24 21:24:08;;;;;;;;;;;;;;;;;;4862666;29;19931;-91
2022/12/24 21:26:34;;;;;;;;;;;;;;;;;;4865031;29;20391;-90
2022/12/24 21:29:03;;;;;;;;;;;;;;;;;;4860648;29;20038;-92
2022/12/24 21:31:29;;;;;;;;;;;;;;;;;;4846420;29;19928;-91
2022/12/24 21:33:55;;;;;;;;;;;;;;;;;;4845325;29;20402;-92
2022/12/24 21:36:20;;;;;;;;;;;;;;;;;;4845374;29;20015;-92
2022/12/24 21:38:49;;;;;;;;;;;;;;;;;;4846270;29;19956;-91
2022/12/24 21:41:15;;;;;;;;;;;;;;;;;;4845922;29;19924;-92
2022/12/24 21:43:41;;;;;;;;;;;;;;;;;;4847913;29;19991;-92
2022/12/24 21:46:07;;;;;;;;;;;;;;;;;;4864955;29;19923;-91
2022/12/24 21:51:21;;;;;;;;;;;;;;;;;;4863416;29;20292;-92
2022/12/24 21:57:51;;;;;;;;;;;;;;;;;;4849209;29;20395;-92
2022/12/24 21:59:21;;;;;;;;;;;;;;;;;;4880621;29;19931;-91
2022/12/24 22:01:46;;;;;;;;;;;;;;;;;;4863974;29;19923;-91
2022/12/24 22:04:12;;;;;;;;;;;;;;;;;;4864179;29;19930;-92
2022/12/24 22:12:08;;;;;;;;;;;;;;;;;;4845509;29;19924;-91
2022/12/24 22:14:34;;;;;;;;;;;;;;;;;;4845397;29;20241;-91
2022/12/24 22:17:00;;;;;;;;;;;;;;;;;;4844827;29;19977;-91
2022/12/24 22:19:26;;;;;;;;;;;;;;;;;;4845001;29;19924;-91
2022/12/24 22:21:51;;;;;;;;;;;;;;;;;;4844392;29;19928;-92
2022/12/24 22:24:17;;;;;;;;;;;;;;;;;;4844697;29;20311;-90
2022/12/24 22:26:43;;;;;;;;;;;;;;;;;;4844817;29;19924;-91
2022/12/24 22:29:09;;;;;;;;;;;;;;;;;;4844914;29;19932;-91
2022/12/24 22:31:36;;;;;;;;;;;;;;;;;;4844415;29;19931;-91
2022/12/24 22:34:02;;;;;;;;;;;;;;;;;;4844748;29;19974;-91
2022/12/24 22:36:28;;;;;;;;;;;;;;;;;;4844857;29;19979;-91
2022/12/24 22:38:54;;;;;;;;;;;;;;;;;;4844771;29;20159;-91
2022/12/24 22:41:22;;;;;;;;;;;;;;;;;;4860040;29;20373;-91
2022/12/24 22:43:51;;;;;;;;;;;;;;;;;;4861320;29;19924;-91
2022/12/24 22:46:17;;;;;;;;;;;;;;;;;;4844513;29;19995;-90
2022/12/24 22:48:43;;;;;;;;;;;;;;;;;;4844757;29;19994;-90
2022/12/24 22:51:09;;;;;;;;;;;;;;;;;;4844273;29;19935;-90
2022/12/24 22:53:35;;;;;;;;;;;;;;;;;;4844462;29;19924;-92
2022/12/24 22:56:01;;;;;;;;;;;;;;;;;;4844840;29;20288;-92
2022/12/24 22:58:27;;;;;;;;;;;;;;;;;;4859847;29;19924;-92
2022/12/24 23:00:53;;;;;;;;;;;;;;;;;;4854166;29;19934;-92
2022/12/24 23:03:19;;;;;;;;;;;;;;;;;;4844285;29;19928;-91
2022/12/24 23:05:45;;;;;;;;;;;;;;;;;;4859565;29;19988;-92
2022/12/24 23:08:12;;;;;;;;;;;;;;;;;;4844569;29;19928;-92
2022/12/24 23:10:38;;;;;;;;;;;;;;;;;;4847017;29;19932;-93
2022/12/24 23:15:49;;;;;;;;;;;;;;;;;;4862815;29;19930;-93
2022/12/24 23:18:14;;;;;;;;;;;;;;;;;;4862895;29;20291;-92
2022/12/24 23:20:41;;;;;;;;;;;;;;;;;;4860189;29;21449;-92
2022/12/24 23:23:07;;;;;;;;;;;;;;;;;;4844085;29;19986;-92
2022/12/24 23:25:33;;;;;;;;;;;;;;;;;;4844257;29;20313;-92
2022/12/24 23:27:59;;;;;;;;;;;;;;;;;;4843789;29;20033;-91
2022/12/24 23:30:25;;;;;;;;;;;;;;;;;;4844017;29;19928;-92
2022/12/24 23:32:51;;;;;;;;;;;;;;;;;;4844079;29;19924;-92
2022/12/24 23:35:17;;;;;;;;;;;;;;;;;;4844357;29;20379;-92
2022/12/24 23:37:43;;;;;;;;;;;;;;;;;;4844301;29;20281;-93
2022/12/24 23:40:09;;;;;;;;;;;;;;;;;;4844029;29;20332;-92
2022/12/24 23:42:35;;;;;;;;;;;;;;;;;;4843746;29;20368;-92
2022/12/24 23:45:01;;;;;;;;;;;;;;;;;;4844188;29;19924;-92
2022/12/24 23:47:27;;;;;;;;;;;;;;;;;;4844324;29;20360;-92
2022/12/24 23:49:52;;;;;;;;;;;;;;;;;;4843975;29;19929;-92
2022/12/24 23:52:20;;;;;;;;;;;;;;;;;;4843801;29;19924;-92
2022/12/24 23:54:46;;;;;;;;;;;;;;;;;;4843451;29;19980;-90
2022/12/24 23:57:15;;;;;;;;;;;;;;;;;;4843511;29;19931;-93
2022/12/24 23:59:41;;;;;;;;;;;;;;;;;;4844203;29;19924;-92
